sensor_id;sensor_type;location;lat;lon;timestamp;P1;durP1;ratioP1;P2;durP2;ratioP2
53293;SDS011;39181;53.440;5.644;2022-08-21T00:00:24;9.35;;;2.33;;
53293;SDS011;39181;53.440;5.644;2022-08-21T00:02:54;7.82;;;2.58;;
53293;SDS011;39181;53.440;5.644;2022-08-21T00:05:22;7.15;;;2.20;;
53293;SDS011;39181;53.440;5.644;2022-08-21T00:07:48;9.50;;;2.25;;
53293;SDS011;39181;53.440;5.644;2022-08-21T00:10:14;8.55;;;2.50;;
53293;SDS011;39181;53.440;5.644;2022-08-21T00:12:40;13.07;;;2.95;;
53293;SDS011;39181;53.440;5.644;2022-08-21T00:15:07;9.68;;;2.28;;
53293;SDS011;39181;53.440;5.644;2022-08-21T00:17:35;10.07;;;2.47;;
53293;SDS011;39181;53.440;5.644;2022-08-21T00:20:01;13.45;;;2.28;;
53293;SDS011;39181;53.440;5.644;2022-08-21T00:22:29;7.85;;;2.50;;
53293;SDS011;39181;53.440;5.644;2022-08-21T00:24:54;13.23;;;2.72;;
53293;SDS011;39181;53.440;5.644;2022-08-21T00:27:20;12.32;;;2.47;;
53293;SDS011;39181;53.440;5.644;2022-08-21T00:29:45;10.82;;;2.20;;
53293;SDS011;39181;53.440;5.644;2022-08-21T00:32:11;9.25;;;1.80;;
53293;SDS011;39181;53.440;5.644;2022-08-21T00:34:37;10.30;;;2.33;;
53293;SDS011;39181;53.440;5.644;2022-08-21T00:37:02;10.48;;;2.10;;
53293;SDS011;39181;53.440;5.644;2022-08-21T00:39:28;5.95;;;1.83;;
53293;SDS011;39181;53.440;5.644;2022-08-21T00:41:54;8.18;;;2.17;;
53293;SDS011;39181;53.440;5.644;2022-08-21T00:44:19;8.65;;;1.73;;
53293;SDS011;39181;53.440;5.644;2022-08-21T00:46:45;6.97;;;1.60;;
53293;SDS011;39181;53.440;5.644;2022-08-21T00:49:11;7.22;;;2.03;;
53293;SDS011;39181;53.440;5.644;2022-08-21T00:54:14;9.18;;;1.80;;
53293;SDS011;39181;53.440;5.644;2022-08-21T00:56:41;7.18;;;1.83;;
53293;SDS011;39181;53.440;5.644;2022-08-21T00:59:07;8.13;;;1.60;;
53293;SDS011;39181;53.440;5.644;2022-08-21T01:01:33;9.20;;;2.22;;
53293;SDS011;39181;53.440;5.644;2022-08-21T01:03:59;8.05;;;2.08;;
53293;SDS011;39181;53.440;5.644;2022-08-21T01:06:25;9.18;;;2.35;;
53293;SDS011;39181;53.440;5.644;2022-08-21T01:08:50;10.05;;;2.15;;
53293;SDS011;39181;53.440;5.644;2022-08-21T01:11:16;9.90;;;2.53;;
53293;SDS011;39181;53.440;5.644;2022-08-21T01:13:42;8.32;;;2.22;;
53293;SDS011;39181;53.440;5.644;2022-08-21T01:16:11;12.77;;;2.10;;
53293;SDS011;39181;53.440;5.644;2022-08-21T01:18:40;9.68;;;2.17;;
53293;SDS011;39181;53.440;5.644;2022-08-21T01:23:31;9.50;;;1.92;;
53293;SDS011;39181;53.440;5.644;2022-08-21T01:25:58;10.88;;;2.15;;
53293;SDS011;39181;53.440;5.644;2022-08-21T01:28:24;10.25;;;2.53;;
53293;SDS011;39181;53.440;5.644;2022-08-21T01:30:50;9.50;;;2.40;;
53293;SDS011;39181;53.440;5.644;2022-08-21T01:33:18;10.63;;;2.10;;
53293;SDS011;39181;53.440;5.644;2022-08-21T01:35:46;9.35;;;1.73;;
53293;SDS011;39181;53.440;5.644;2022-08-21T01:38:12;5.80;;;1.75;;
53293;SDS011;39181;53.440;5.644;2022-08-21T01:40:38;9.50;;;2.05;;
53293;SDS011;39181;53.440;5.644;2022-08-21T01:43:03;6.38;;;1.65;;
53293;SDS011;39181;53.440;5.644;2022-08-21T01:45:29;14.63;;;2.55;;
53293;SDS011;39181;53.440;5.644;2022-08-21T01:47:55;11.32;;;2.22;;
53293;SDS011;39181;53.440;5.644;2022-08-21T01:50:21;8.52;;;1.70;;
53293;SDS011;39181;53.440;5.644;2022-08-21T01:52:47;9.55;;;2.17;;
53293;SDS011;39181;53.440;5.644;2022-08-21T01:55:15;6.32;;;2.00;;
53293;SDS011;39181;53.440;5.644;2022-08-21T01:57:41;6.90;;;1.67;;
53293;SDS011;39181;53.440;5.644;2022-08-21T02:00:09;10.40;;;2.60;;
53293;SDS011;39181;53.440;5.644;2022-08-21T02:02:36;8.73;;;2.35;;
53293;SDS011;39181;53.440;5.644;2022-08-21T02:05:02;8.07;;;1.88;;
53293;SDS011;39181;53.440;5.644;2022-08-21T02:07:34;10.82;;;2.60;;
53293;SDS011;39181;53.440;5.644;2022-08-21T02:10:03;8.88;;;2.10;;
53293;SDS011;39181;53.440;5.644;2022-08-21T02:12:30;16.30;;;2.55;;
53293;SDS011;39181;53.440;5.644;2022-08-21T02:14:56;12.60;;;2.55;;
53293;SDS011;39181;53.440;5.644;2022-08-21T02:17:22;7.05;;;1.80;;
53293;SDS011;39181;53.440;5.644;2022-08-21T02:19:47;8.18;;;2.60;;
53293;SDS011;39181;53.440;5.644;2022-08-21T02:22:13;5.00;;;2.08;;
53293;SDS011;39181;53.440;5.644;2022-08-21T02:24:39;9.18;;;2.63;;
53293;SDS011;39181;53.440;5.644;2022-08-21T02:27:05;9.95;;;2.60;;
53293;SDS011;39181;53.440;5.644;2022-08-21T02:29:30;10.65;;;2.50;;
53293;SDS011;39181;53.440;5.644;2022-08-21T02:31:56;7.50;;;1.90;;
53293;SDS011;39181;53.440;5.644;2022-08-21T02:34:21;7.80;;;2.20;;
53293;SDS011;39181;53.440;5.644;2022-08-21T02:36:47;7.70;;;2.08;;
53293;SDS011;39181;53.440;5.644;2022-08-21T02:39:13;11.85;;;2.45;;
53293;SDS011;39181;53.440;5.644;2022-08-21T02:41:38;8.65;;;2.60;;
53293;SDS011;39181;53.440;5.644;2022-08-21T02:44:04;6.60;;;2.13;;
53293;SDS011;39181;53.440;5.644;2022-08-21T02:46:30;10.38;;;2.97;;
53293;SDS011;39181;53.440;5.644;2022-08-21T02:48:56;11.82;;;3.20;;
53293;SDS011;39181;53.440;5.644;2022-08-21T02:51:22;10.93;;;3.08;;
53293;SDS011;39181;53.440;5.644;2022-08-21T02:53:50;6.78;;;2.45;;
53293;SDS011;39181;53.440;5.644;2022-08-21T02:56:16;7.88;;;2.63;;
53293;SDS011;39181;53.440;5.644;2022-08-21T02:58:46;6.07;;;2.38;;
53293;SDS011;39181;53.440;5.644;2022-08-21T03:01:14;10.13;;;3.22;;
53293;SDS011;39181;53.440;5.644;2022-08-21T03:03:41;7.22;;;2.80;;
53293;SDS011;39181;53.440;5.644;2022-08-21T03:06:09;8.80;;;3.25;;
53293;SDS011;39181;53.440;5.644;2022-08-21T03:08:36;8.57;;;3.25;;
53293;SDS011;39181;53.440;5.644;2022-08-21T03:11:03;13.15;;;3.85;;
53293;SDS011;39181;53.440;5.644;2022-08-21T03:13:28;12.75;;;3.63;;
53293;SDS011;39181;53.440;5.644;2022-08-21T03:15:54;10.00;;;4.15;;
53293;SDS011;39181;53.440;5.644;2022-08-21T03:18:20;10.27;;;3.53;;
53293;SDS011;39181;53.440;5.644;2022-08-21T03:20:46;8.85;;;3.38;;
53293;SDS011;39181;53.440;5.644;2022-08-21T03:23:12;8.00;;;3.05;;
53293;SDS011;39181;53.440;5.644;2022-08-21T03:25:38;12.85;;;4.05;;
53293;SDS011;39181;53.440;5.644;2022-08-21T03:28:05;14.23;;;3.90;;
53293;SDS011;39181;53.440;5.644;2022-08-21T03:30:34;12.65;;;4.70;;
53293;SDS011;39181;53.440;5.644;2022-08-21T03:33:00;10.20;;;4.00;;
53293;SDS011;39181;53.440;5.644;2022-08-21T03:35:26;11.02;;;4.53;;
53293;SDS011;39181;53.440;5.644;2022-08-21T03:37:52;13.48;;;4.25;;
53293;SDS011;39181;53.440;5.644;2022-08-21T03:40:19;12.65;;;3.92;;
53293;SDS011;39181;53.440;5.644;2022-08-21T03:42:45;12.15;;;3.95;;
53293;SDS011;39181;53.440;5.644;2022-08-21T03:45:12;16.25;;;5.00;;
53293;SDS011;39181;53.440;5.644;2022-08-21T03:47:38;10.38;;;3.67;;
53293;SDS011;39181;53.440;5.644;2022-08-21T03:50:03;9.35;;;4.22;;
53293;SDS011;39181;53.440;5.644;2022-08-21T03:52:30;13.73;;;5.40;;
53293;SDS011;39181;53.440;5.644;2022-08-21T03:54:55;10.90;;;5.30;;
53293;SDS011;39181;53.440;5.644;2022-08-21T03:57:21;11.27;;;4.82;;
53293;SDS011;39181;53.440;5.644;2022-08-21T03:59:47;9.90;;;4.00;;
53293;SDS011;39181;53.440;5.644;2022-08-21T04:02:12;15.43;;;4.43;;
53293;SDS011;39181;53.440;5.644;2022-08-21T04:04:42;17.13;;;4.32;;
53293;SDS011;39181;53.440;5.644;2022-08-21T04:07:08;12.93;;;4.22;;
53293;SDS011;39181;53.440;5.644;2022-08-21T04:09:33;11.60;;;4.85;;
53293;SDS011;39181;53.440;5.644;2022-08-21T04:11:59;12.68;;;5.38;;
53293;SDS011;39181;53.440;5.644;2022-08-21T04:14:25;13.10;;;4.57;;
53293;SDS011;39181;53.440;5.644;2022-08-21T04:16:50;13.07;;;4.95;;
53293;SDS011;39181;53.440;5.644;2022-08-21T04:19:16;11.27;;;4.50;;
53293;SDS011;39181;53.440;5.644;2022-08-21T04:21:42;12.40;;;4.80;;
53293;SDS011;39181;53.440;5.644;2022-08-21T04:24:08;10.95;;;4.57;;
53293;SDS011;39181;53.440;5.644;2022-08-21T04:26:35;11.88;;;4.50;;
53293;SDS011;39181;53.440;5.644;2022-08-21T04:29:01;11.43;;;4.22;;
53293;SDS011;39181;53.440;5.644;2022-08-21T04:31:28;14.07;;;5.50;;
53293;SDS011;39181;53.440;5.644;2022-08-21T04:33:54;18.35;;;5.38;;
53293;SDS011;39181;53.440;5.644;2022-08-21T04:36:21;16.70;;;5.80;;
53293;SDS011;39181;53.440;5.644;2022-08-21T04:38:47;14.05;;;5.60;;
53293;SDS011;39181;53.440;5.644;2022-08-21T04:41:13;14.60;;;5.38;;
53293;SDS011;39181;53.440;5.644;2022-08-21T04:43:39;12.48;;;4.82;;
53293;SDS011;39181;53.440;5.644;2022-08-21T04:46:05;13.43;;;4.82;;
53293;SDS011;39181;53.440;5.644;2022-08-21T04:48:30;9.35;;;4.20;;
53293;SDS011;39181;53.440;5.644;2022-08-21T04:51:11;11.70;;;4.95;;
53293;SDS011;39181;53.440;5.644;2022-08-21T04:53:47;12.38;;;5.00;;
53293;SDS011;39181;53.440;5.644;2022-08-21T04:58:54;13.52;;;4.47;;
53293;SDS011;39181;53.440;5.644;2022-08-21T05:01:22;12.75;;;4.63;;
53293;SDS011;39181;53.440;5.644;2022-08-21T05:03:50;16.17;;;5.50;;
53293;SDS011;39181;53.440;5.644;2022-08-21T05:06:20;15.45;;;4.47;;
53293;SDS011;39181;53.440;5.644;2022-08-21T05:08:47;15.65;;;4.80;;
53293;SDS011;39181;53.440;5.644;2022-08-21T05:11:16;13.50;;;4.60;;
53293;SDS011;39181;53.440;5.644;2022-08-21T05:13:41;16.73;;;4.95;;
53293;SDS011;39181;53.440;5.644;2022-08-21T05:16:07;13.05;;;4.28;;
53293;SDS011;39181;53.440;5.644;2022-08-21T05:18:33;16.60;;;4.75;;
53293;SDS011;39181;53.440;5.644;2022-08-21T05:20:59;11.95;;;3.63;;
53293;SDS011;39181;53.440;5.644;2022-08-21T05:23:25;11.75;;;4.10;;
53293;SDS011;39181;53.440;5.644;2022-08-21T05:25:51;11.80;;;4.03;;
53293;SDS011;39181;53.440;5.644;2022-08-21T05:28:17;10.77;;;3.63;;
53293;SDS011;39181;53.440;5.644;2022-08-21T05:30:43;10.57;;;4.38;;
53293;SDS011;39181;53.440;5.644;2022-08-21T05:33:09;10.18;;;3.50;;
53293;SDS011;39181;53.440;5.644;2022-08-21T05:35:35;14.15;;;3.50;;
53293;SDS011;39181;53.440;5.644;2022-08-21T05:38:01;13.90;;;3.30;;
53293;SDS011;39181;53.440;5.644;2022-08-21T05:40:27;17.42;;;3.50;;
53293;SDS011;39181;53.440;5.644;2022-08-21T05:42:54;12.93;;;2.88;;
53293;SDS011;39181;53.440;5.644;2022-08-21T05:45:21;11.27;;;3.13;;
53293;SDS011;39181;53.440;5.644;2022-08-21T05:47:47;16.58;;;3.25;;
53293;SDS011;39181;53.440;5.644;2022-08-21T05:50:13;14.10;;;3.20;;
53293;SDS011;39181;53.440;5.644;2022-08-21T05:52:38;16.17;;;3.65;;
53293;SDS011;39181;53.440;5.644;2022-08-21T05:55:04;10.90;;;2.80;;
53293;SDS011;39181;53.440;5.644;2022-08-21T05:57:30;13.60;;;3.53;;
53293;SDS011;39181;53.440;5.644;2022-08-21T05:59:55;12.95;;;3.63;;
53293;SDS011;39181;53.440;5.644;2022-08-21T06:02:21;13.50;;;3.60;;
53293;SDS011;39181;53.440;5.644;2022-08-21T06:04:47;14.20;;;3.42;;
53293;SDS011;39181;53.440;5.644;2022-08-21T06:07:13;10.77;;;2.10;;
53293;SDS011;39181;53.440;5.644;2022-08-21T06:09:39;17.50;;;2.95;;
53293;SDS011;39181;53.440;5.644;2022-08-21T06:12:09;11.23;;;2.20;;
53293;SDS011;39181;53.440;5.644;2022-08-21T06:14:37;13.40;;;2.53;;
53293;SDS011;39181;53.440;5.644;2022-08-21T06:17:04;19.80;;;3.08;;
53293;SDS011;39181;53.440;5.644;2022-08-21T06:19:31;15.65;;;2.80;;
53293;SDS011;39181;53.440;5.644;2022-08-21T06:21:58;12.45;;;2.75;;
53293;SDS011;39181;53.440;5.644;2022-08-21T06:24:23;11.13;;;2.92;;
53293;SDS011;39181;53.440;5.644;2022-08-21T06:26:49;12.65;;;2.17;;
53293;SDS011;39181;53.440;5.644;2022-08-21T06:29:15;10.95;;;2.28;;
53293;SDS011;39181;53.440;5.644;2022-08-21T06:31:41;13.98;;;2.97;;
53293;SDS011;39181;53.440;5.644;2022-08-21T06:34:07;12.80;;;2.70;;
53293;SDS011;39181;53.440;5.644;2022-08-21T06:36:33;10.45;;;2.92;;
53293;SDS011;39181;53.440;5.644;2022-08-21T06:38:59;12.15;;;2.58;;
53293;SDS011;39181;53.440;5.644;2022-08-21T06:41:24;11.48;;;2.70;;
53293;SDS011;39181;53.440;5.644;2022-08-21T06:43:51;9.80;;;2.42;;
53293;SDS011;39181;53.440;5.644;2022-08-21T06:46:17;15.57;;;2.53;;
53293;SDS011;39181;53.440;5.644;2022-08-21T06:48:42;8.98;;;2.00;;
53293;SDS011;39181;53.440;5.644;2022-08-21T06:51:08;11.68;;;2.70;;
53293;SDS011;39181;53.440;5.644;2022-08-21T06:53:33;14.40;;;2.33;;
53293;SDS011;39181;53.440;5.644;2022-08-21T06:55:59;14.10;;;2.00;;
53293;SDS011;39181;53.440;5.644;2022-08-21T06:58:24;12.85;;;2.35;;
53293;SDS011;39181;53.440;5.644;2022-08-21T07:00:50;13.68;;;2.47;;
53293;SDS011;39181;53.440;5.644;2022-08-21T07:03:17;11.52;;;2.03;;
53293;SDS011;39181;53.440;5.644;2022-08-21T07:05:45;12.13;;;2.40;;
53293;SDS011;39181;53.440;5.644;2022-08-21T07:08:10;14.65;;;2.30;;
53293;SDS011;39181;53.440;5.644;2022-08-21T07:10:36;11.55;;;2.33;;
53293;SDS011;39181;53.440;5.644;2022-08-21T07:13:01;14.90;;;2.55;;
53293;SDS011;39181;53.440;5.644;2022-08-21T07:15:28;9.70;;;2.33;;
53293;SDS011;39181;53.440;5.644;2022-08-21T07:17:54;12.90;;;2.15;;
53293;SDS011;39181;53.440;5.644;2022-08-21T07:20:20;7.30;;;2.20;;
53293;SDS011;39181;53.440;5.644;2022-08-21T07:22:45;14.20;;;2.22;;
53293;SDS011;39181;53.440;5.644;2022-08-21T07:25:11;10.65;;;2.30;;
53293;SDS011;39181;53.440;5.644;2022-08-21T07:27:37;10.25;;;2.03;;
53293;SDS011;39181;53.440;5.644;2022-08-21T07:30:03;9.65;;;2.10;;
53293;SDS011;39181;53.440;5.644;2022-08-21T07:32:30;11.75;;;2.70;;
53293;SDS011;39181;53.440;5.644;2022-08-21T07:34:55;15.38;;;3.30;;
53293;SDS011;39181;53.440;5.644;2022-08-21T07:37:21;11.15;;;2.42;;
53293;SDS011;39181;53.440;5.644;2022-08-21T07:39:46;12.90;;;2.58;;
53293;SDS011;39181;53.440;5.644;2022-08-21T07:42:14;11.93;;;2.60;;
53293;SDS011;39181;53.440;5.644;2022-08-21T07:44:40;8.45;;;2.63;;
53293;SDS011;39181;53.440;5.644;2022-08-21T07:47:05;9.57;;;2.10;;
53293;SDS011;39181;53.440;5.644;2022-08-21T07:49:31;13.05;;;2.58;;
53293;SDS011;39181;53.440;5.644;2022-08-21T07:51:57;10.52;;;2.33;;
53293;SDS011;39181;53.440;5.644;2022-08-21T07:54:22;9.43;;;2.13;;
53293;SDS011;39181;53.440;5.644;2022-08-21T07:56:48;13.40;;;2.35;;
53293;SDS011;39181;53.440;5.644;2022-08-21T07:59:13;11.02;;;2.15;;
53293;SDS011;39181;53.440;5.644;2022-08-21T08:01:39;13.48;;;2.17;;
53293;SDS011;39181;53.440;5.644;2022-08-21T08:04:05;10.93;;;2.45;;
53293;SDS011;39181;53.440;5.644;2022-08-21T08:06:31;12.50;;;2.15;;
53293;SDS011;39181;53.440;5.644;2022-08-21T08:08:56;14.68;;;2.42;;
53293;SDS011;39181;53.440;5.644;2022-08-21T08:11:22;13.23;;;2.63;;
53293;SDS011;39181;53.440;5.644;2022-08-21T08:13:49;10.45;;;2.15;;
53293;SDS011;39181;53.440;5.644;2022-08-21T08:16:16;9.95;;;1.98;;
53293;SDS011;39181;53.440;5.644;2022-08-21T08:18:42;10.68;;;2.28;;
53293;SDS011;39181;53.440;5.644;2022-08-21T08:21:09;10.95;;;2.42;;
53293;SDS011;39181;53.440;5.644;2022-08-21T08:23:36;12.75;;;2.90;;
53293;SDS011;39181;53.440;5.644;2022-08-21T08:26:02;9.00;;;1.95;;
53293;SDS011;39181;53.440;5.644;2022-08-21T08:28:28;8.02;;;1.95;;
53293;SDS011;39181;53.440;5.644;2022-08-21T08:30:54;6.65;;;2.13;;
53293;SDS011;39181;53.440;5.644;2022-08-21T08:33:20;7.80;;;2.00;;
53293;SDS011;39181;53.440;5.644;2022-08-21T08:35:46;8.57;;;2.00;;
53293;SDS011;39181;53.440;5.644;2022-08-21T08:38:14;7.97;;;1.95;;
53293;SDS011;39181;53.440;5.644;2022-08-21T08:40:45;9.88;;;2.00;;
53293;SDS011;39181;53.440;5.644;2022-08-21T08:43:25;9.15;;;1.90;;
53293;SDS011;39181;53.440;5.644;2022-08-21T08:45:53;7.45;;;1.70;;
53293;SDS011;39181;53.440;5.644;2022-08-21T08:48:39;10.32;;;1.98;;
53293;SDS011;39181;53.440;5.644;2022-08-21T08:51:26;7.63;;;2.13;;
53293;SDS011;39181;53.440;5.644;2022-08-21T08:54:03;6.20;;;1.83;;
53293;SDS011;39181;53.440;5.644;2022-08-21T08:56:33;8.70;;;1.70;;
53293;SDS011;39181;53.440;5.644;2022-08-21T08:59:08;5.78;;;1.45;;
53293;SDS011;39181;53.440;5.644;2022-08-21T09:01:40;8.88;;;1.50;;
53293;SDS011;39181;53.440;5.644;2022-08-21T09:04:06;7.18;;;1.92;;
53293;SDS011;39181;53.440;5.644;2022-08-21T09:20:14;10.35;;;1.98;;
53293;SDS011;39181;53.440;5.644;2022-08-21T09:25:58;4.75;;;1.88;;
53293;SDS011;39181;53.440;5.644;2022-08-21T09:28:41;7.05;;;1.75;;
53293;SDS011;39181;53.440;5.644;2022-08-21T09:31:27;8.10;;;2.25;;
53293;SDS011;39181;53.440;5.644;2022-08-21T09:34:00;7.97;;;1.80;;
53293;SDS011;39181;53.440;5.644;2022-08-21T09:36:36;5.55;;;1.50;;
53293;SDS011;39181;53.440;5.644;2022-08-21T09:39:10;5.18;;;1.65;;
53293;SDS011;39181;53.440;5.644;2022-08-21T09:41:37;9.38;;;1.70;;
53293;SDS011;39181;53.440;5.644;2022-08-21T09:44:04;6.70;;;1.50;;
53293;SDS011;39181;53.440;5.644;2022-08-21T09:46:31;7.75;;;1.75;;
53293;SDS011;39181;53.440;5.644;2022-08-21T09:49:00;7.45;;;2.17;;
53293;SDS011;39181;53.440;5.644;2022-08-21T09:51:29;6.10;;;1.63;;
53293;SDS011;39181;53.440;5.644;2022-08-21T09:54:10;5.22;;;1.52;;
53293;SDS011;39181;53.440;5.644;2022-08-21T09:56:51;6.47;;;1.40;;
53293;SDS011;39181;53.440;5.644;2022-08-21T09:59:41;5.60;;;1.88;;
53293;SDS011;39181;53.440;5.644;2022-08-21T10:02:23;6.70;;;1.52;;
53293;SDS011;39181;53.440;5.644;2022-08-21T10:04:58;4.55;;;1.20;;
53293;SDS011;39181;53.440;5.644;2022-08-21T10:10:00;6.88;;;1.45;;
53293;SDS011;39181;53.440;5.644;2022-08-21T10:12:53;5.10;;;1.33;;
53293;SDS011;39181;53.440;5.644;2022-08-21T10:20:45;6.55;;;1.30;;
53293;SDS011;39181;53.440;5.644;2022-08-21T10:34:28;6.43;;;1.67;;
53293;SDS011;39181;53.440;5.644;2022-08-21T10:40:07;5.95;;;1.27;;
53293;SDS011;39181;53.440;5.644;2022-08-21T10:42:49;5.75;;;1.40;;
53293;SDS011;39181;53.440;5.644;2022-08-21T10:45:55;5.32;;;1.50;;
53293;SDS011;39181;53.440;5.644;2022-08-21T10:48:31;8.68;;;1.65;;
53293;SDS011;39181;53.440;5.644;2022-08-21T10:54:14;8.90;;;1.58;;
53293;SDS011;39181;53.440;5.644;2022-08-21T10:57:05;9.23;;;1.70;;
53293;SDS011;39181;53.440;5.644;2022-08-21T10:59:47;8.70;;;2.25;;
53293;SDS011;39181;53.440;5.644;2022-08-21T11:02:25;6.40;;;1.50;;
53293;SDS011;39181;53.440;5.644;2022-08-21T11:05:11;7.65;;;1.85;;
53293;SDS011;39181;53.440;5.644;2022-08-21T11:07:54;8.82;;;2.58;;
53293;SDS011;39181;53.440;5.644;2022-08-21T11:10:27;6.40;;;1.65;;
53293;SDS011;39181;53.440;5.644;2022-08-21T11:13:06;5.13;;;1.63;;
53293;SDS011;39181;53.440;5.644;2022-08-21T11:15:40;8.02;;;1.90;;
53293;SDS011;39181;53.440;5.644;2022-08-21T11:18:17;7.88;;;1.90;;
53293;SDS011;39181;53.440;5.644;2022-08-21T11:20:50;6.43;;;1.63;;
53293;SDS011;39181;53.440;5.644;2022-08-21T11:23:28;5.57;;;1.33;;
53293;SDS011;39181;53.440;5.644;2022-08-21T11:26:12;6.07;;;1.60;;
53293;SDS011;39181;53.440;5.644;2022-08-21T11:28:48;7.68;;;2.17;;
53293;SDS011;39181;53.440;5.644;2022-08-21T11:33:55;7.10;;;1.95;;
53293;SDS011;39181;53.440;5.644;2022-08-21T11:39:09;5.60;;;1.40;;
53293;SDS011;39181;53.440;5.644;2022-08-21T11:41:51;6.50;;;1.65;;
53293;SDS011;39181;53.440;5.644;2022-08-21T11:47:31;10.32;;;2.00;;
53293;SDS011;39181;53.440;5.644;2022-08-21T11:52:51;7.90;;;2.03;;
53293;SDS011;39181;53.440;5.644;2022-08-21T11:55:28;7.60;;;1.70;;
53293;SDS011;39181;53.440;5.644;2022-08-21T11:58:29;4.97;;;1.20;;
53293;SDS011;39181;53.440;5.644;2022-08-21T12:01:11;5.85;;;1.30;;
53293;SDS011;39181;53.440;5.644;2022-08-21T12:03:42;7.03;;;1.75;;
53293;SDS011;39181;53.440;5.644;2022-08-21T12:06:26;10.23;;;1.25;;
53293;SDS011;39181;53.440;5.644;2022-08-21T12:09:07;6.65;;;1.42;;
53293;SDS011;39181;53.440;5.644;2022-08-21T12:14:48;11.32;;;2.00;;
53293;SDS011;39181;53.440;5.644;2022-08-21T12:17:20;11.82;;;2.70;;
53293;SDS011;39181;53.440;5.644;2022-08-21T12:22:47;7.72;;;2.08;;
53293;SDS011;39181;53.440;5.644;2022-08-21T12:25:18;6.45;;;1.30;;
53293;SDS011;39181;53.440;5.644;2022-08-21T12:27:52;5.75;;;1.60;;
53293;SDS011;39181;53.440;5.644;2022-08-21T12:32:59;7.25;;;1.92;;
53293;SDS011;39181;53.440;5.644;2022-08-21T12:35:31;9.88;;;2.10;;
53293;SDS011;39181;53.440;5.644;2022-08-21T12:38:21;5.97;;;1.63;;
53293;SDS011;39181;53.440;5.644;2022-08-21T12:40:58;9.85;;;1.98;;
53293;SDS011;39181;53.440;5.644;2022-08-21T12:43:47;8.60;;;2.15;;
53293;SDS011;39181;53.440;5.644;2022-08-21T12:46:22;8.70;;;1.75;;
53293;SDS011;39181;53.440;5.644;2022-08-21T12:48:59;11.20;;;1.83;;
53293;SDS011;39181;53.440;5.644;2022-08-21T12:51:50;7.93;;;1.70;;
53293;SDS011;39181;53.440;5.644;2022-08-21T12:54:29;9.85;;;2.20;;
53293;SDS011;39181;53.440;5.644;2022-08-21T12:57:03;14.45;;;1.58;;
53293;SDS011;39181;53.440;5.644;2022-08-21T12:59:31;11.52;;;1.70;;
53293;SDS011;39181;53.440;5.644;2022-08-21T13:01:58;8.73;;;1.75;;
53293;SDS011;39181;53.440;5.644;2022-08-21T13:04:30;6.47;;;1.50;;
53293;SDS011;39181;53.440;5.644;2022-08-21T13:07:05;9.35;;;1.60;;
53293;SDS011;39181;53.440;5.644;2022-08-21T13:09:39;6.13;;;1.50;;
53293;SDS011;39181;53.440;5.644;2022-08-21T13:12:11;7.40;;;1.35;;
53293;SDS011;39181;53.440;5.644;2022-08-21T13:14:40;5.55;;;1.58;;
53293;SDS011;39181;53.440;5.644;2022-08-21T13:17:07;7.68;;;1.40;;
53293;SDS011;39181;53.440;5.644;2022-08-21T13:19:34;7.15;;;1.65;;
53293;SDS011;39181;53.440;5.644;2022-08-21T13:22:00;9.90;;;1.73;;
53293;SDS011;39181;53.440;5.644;2022-08-21T13:24:30;9.30;;;1.58;;
53293;SDS011;39181;53.440;5.644;2022-08-21T13:29:29;9.60;;;2.15;;
53293;SDS011;39181;53.440;5.644;2022-08-21T13:32:01;6.38;;;1.60;;
53293;SDS011;39181;53.440;5.644;2022-08-21T13:34:38;6.00;;;1.60;;
53293;SDS011;39181;53.440;5.644;2022-08-21T13:37:05;9.55;;;1.50;;
53293;SDS011;39181;53.440;5.644;2022-08-21T13:39:32;10.80;;;2.17;;
53293;SDS011;39181;53.440;5.644;2022-08-21T13:41:59;5.40;;;1.70;;
53293;SDS011;39181;53.440;5.644;2022-08-21T13:46:55;8.15;;;1.63;;
53293;SDS011;39181;53.440;5.644;2022-08-21T13:49:26;6.90;;;2.10;;
53293;SDS011;39181;53.440;5.644;2022-08-21T13:51:56;8.40;;;1.75;;
53293;SDS011;39181;53.440;5.644;2022-08-21T13:54:23;7.03;;;2.40;;
53293;SDS011;39181;53.440;5.644;2022-08-21T13:56:52;8.70;;;1.83;;
53293;SDS011;39181;53.440;5.644;2022-08-21T13:59:51;9.80;;;1.75;;
53293;SDS011;39181;53.440;5.644;2022-08-21T14:04:48;6.35;;;1.83;;
53293;SDS011;39181;53.440;5.644;2022-08-21T14:10:00;6.97;;;1.98;;
53293;SDS011;39181;53.440;5.644;2022-08-21T14:12:48;9.80;;;2.25;;
53293;SDS011;39181;53.440;5.644;2022-08-21T14:15:24;10.35;;;1.90;;
53293;SDS011;39181;53.440;5.644;2022-08-21T14:17:53;10.45;;;1.73;;
53293;SDS011;39181;53.440;5.644;2022-08-21T14:20:29;7.60;;;1.75;;
53293;SDS011;39181;53.440;5.644;2022-08-21T14:22:56;8.75;;;2.20;;
53293;SDS011;39181;53.440;5.644;2022-08-21T14:27:53;9.23;;;2.20;;
53293;SDS011;39181;53.440;5.644;2022-08-21T14:30:29;7.78;;;2.08;;
53293;SDS011;39181;53.440;5.644;2022-08-21T14:33:00;6.80;;;1.55;;
53293;SDS011;39181;53.440;5.644;2022-08-21T14:35:27;6.80;;;1.70;;
53293;SDS011;39181;53.440;5.644;2022-08-21T14:37:53;8.40;;;2.03;;
53293;SDS011;39181;53.440;5.644;2022-08-21T14:40:20;6.68;;;2.13;;
53293;SDS011;39181;53.440;5.644;2022-08-21T14:42:48;6.20;;;1.35;;
53293;SDS011;39181;53.440;5.644;2022-08-21T14:45:26;10.07;;;1.73;;
53293;SDS011;39181;53.440;5.644;2022-08-21T14:47:53;9.60;;;1.95;;
53293;SDS011;39181;53.440;5.644;2022-08-21T14:50:19;9.13;;;1.70;;
53293;SDS011;39181;53.440;5.644;2022-08-21T14:52:45;6.95;;;1.63;;
53293;SDS011;39181;53.440;5.644;2022-08-21T14:55:11;6.93;;;2.00;;
53293;SDS011;39181;53.440;5.644;2022-08-21T14:57:42;10.98;;;2.20;;
53293;SDS011;39181;53.440;5.644;2022-08-21T15:02:41;5.57;;;1.63;;
53293;SDS011;39181;53.440;5.644;2022-08-21T15:05:07;7.55;;;1.75;;
53293;SDS011;39181;53.440;5.644;2022-08-21T15:07:33;11.00;;;2.50;;
53293;SDS011;39181;53.440;5.644;2022-08-21T15:09:59;8.30;;;1.63;;
53293;SDS011;39181;53.440;5.644;2022-08-21T15:12:24;9.27;;;2.88;;
53293;SDS011;39181;53.440;5.644;2022-08-21T15:14:50;7.65;;;2.42;;
53293;SDS011;39181;53.440;5.644;2022-08-21T15:17:17;9.52;;;2.17;;
53293;SDS011;39181;53.440;5.644;2022-08-21T15:19:43;8.75;;;2.33;;
53293;SDS011;39181;53.440;5.644;2022-08-21T15:22:09;7.45;;;2.10;;
53293;SDS011;39181;53.440;5.644;2022-08-21T15:24:35;8.52;;;1.73;;
53293;SDS011;39181;53.440;5.644;2022-08-21T15:27:01;7.93;;;1.90;;
53293;SDS011;39181;53.440;5.644;2022-08-21T15:29:28;11.68;;;2.63;;
53293;SDS011;39181;53.440;5.644;2022-08-21T15:31:56;9.88;;;1.95;;
53293;SDS011;39181;53.440;5.644;2022-08-21T15:34:23;6.22;;;1.80;;
53293;SDS011;39181;53.440;5.644;2022-08-21T15:36:52;7.57;;;1.98;;
53293;SDS011;39181;53.440;5.644;2022-08-21T15:39:18;8.88;;;2.10;;
53293;SDS011;39181;53.440;5.644;2022-08-21T15:41:44;7.15;;;2.00;;
53293;SDS011;39181;53.440;5.644;2022-08-21T15:44:10;7.70;;;2.03;;
53293;SDS011;39181;53.440;5.644;2022-08-21T15:46:37;7.13;;;1.80;;
53293;SDS011;39181;53.440;5.644;2022-08-21T15:49:04;11.93;;;2.78;;
53293;SDS011;39181;53.440;5.644;2022-08-21T15:51:30;10.10;;;2.20;;
53293;SDS011;39181;53.440;5.644;2022-08-21T15:53:56;8.13;;;1.90;;
53293;SDS011;39181;53.440;5.644;2022-08-21T15:56:22;13.68;;;2.65;;
53293;SDS011;39181;53.440;5.644;2022-08-21T15:58:51;9.18;;;2.33;;
53293;SDS011;39181;53.440;5.644;2022-08-21T16:01:22;9.30;;;2.05;;
53293;SDS011;39181;53.440;5.644;2022-08-21T16:03:48;7.35;;;1.80;;
53293;SDS011;39181;53.440;5.644;2022-08-21T16:06:16;5.97;;;2.03;;
53293;SDS011;39181;53.440;5.644;2022-08-21T16:08:42;8.93;;;1.85;;
53293;SDS011;39181;53.440;5.644;2022-08-21T16:11:07;9.40;;;2.55;;
53293;SDS011;39181;53.440;5.644;2022-08-21T16:13:35;6.13;;;1.85;;
53293;SDS011;39181;53.440;5.644;2022-08-21T16:16:07;7.18;;;2.30;;